sensor_id;sensor_type;location;lat;lon;timestamp;P1;durP1;ratioP1;P2;durP2;ratioP2
15633;SDS011;14654;48.898;8.308;2023-04-06T00:00:47;13.27;;;5.90;;
15633;SDS011;14654;48.898;8.308;2023-04-06T00:03:13;12.90;;;5.93;;
15633;SDS011;14654;48.898;8.308;2023-04-06T00:05:38;14.67;;;5.97;;
15633;SDS011;14654;48.898;8.308;2023-04-06T00:08:04;14.37;;;6.53;;
15633;SDS011;14654;48.898;8.308;2023-04-06T00:10:30;16.90;;;6.70;;
15633;SDS011;14654;48.898;8.308;2023-04-06T00:12:55;14.53;;;6.67;;
15633;SDS011;14654;48.898;8.308;2023-04-06T00:15:22;13.43;;;5.97;;
15633;SDS011;14654;48.898;8.308;2023-04-06T00:17:47;9.67;;;5.40;;
15633;SDS011;14654;48.898;8.308;2023-04-06T00:20:13;8.07;;;5.63;;
15633;SDS011;14654;48.898;8.308;2023-04-06T00:22:38;10.13;;;5.30;;
15633;SDS011;14654;48.898;8.308;2023-04-06T00:25:04;11.87;;;5.90;;
15633;SDS011;14654;48.898;8.308;2023-04-06T00:27:30;11.70;;;6.13;;
15633;SDS011;14654;48.898;8.308;2023-04-06T00:29:55;16.83;;;5.87;;
15633;SDS011;14654;48.898;8.308;2023-04-06T00:32:21;10.77;;;5.27;;
15633;SDS011;14654;48.898;8.308;2023-04-06T00:34:46;8.23;;;4.90;;
15633;SDS011;14654;48.898;8.308;2023-04-06T00:37:12;11.13;;;5.23;;
15633;SDS011;14654;48.898;8.308;2023-04-06T00:39:37;9.00;;;5.33;;
15633;SDS011;14654;48.898;8.308;2023-04-06T00:42:06;5.90;;;5.30;;
15633;SDS011;14654;48.898;8.308;2023-04-06T00:44:40;5.30;;;4.80;;
15633;SDS011;14654;48.898;8.308;2023-04-06T00:47:06;7.47;;;4.87;;
15633;SDS011;14654;48.898;8.308;2023-04-06T00:49:32;5.40;;;4.90;;
15633;SDS011;14654;48.898;8.308;2023-04-06T00:51:58;4.97;;;4.57;;
15633;SDS011;14654;48.898;8.308;2023-04-06T00:54:23;4.87;;;4.47;;
15633;SDS011;14654;48.898;8.308;2023-04-06T00:56:48;4.93;;;4.53;;
15633;SDS011;14654;48.898;8.308;2023-04-06T00:59:14;4.53;;;4.13;;
15633;SDS011;14654;48.898;8.308;2023-04-06T01:01:40;5.50;;;5.00;;
15633;SDS011;14654;48.898;8.308;2023-04-06T01:04:05;5.43;;;4.70;;
15633;SDS011;14654;48.898;8.308;2023-04-06T01:06:31;4.97;;;4.53;;
15633;SDS011;14654;48.898;8.308;2023-04-06T01:08:57;4.73;;;4.33;;
15633;SDS011;14654;48.898;8.308;2023-04-06T01:11:22;4.93;;;4.43;;
15633;SDS011;14654;48.898;8.308;2023-04-06T01:13:48;5.00;;;4.60;;
15633;SDS011;14654;48.898;8.308;2023-04-06T01:16:13;4.80;;;4.40;;
15633;SDS011;14654;48.898;8.308;2023-04-06T01:18:39;4.73;;;4.33;;
15633;SDS011;14654;48.898;8.308;2023-04-06T01:21:05;5.30;;;4.90;;
15633;SDS011;14654;48.898;8.308;2023-04-06T01:23:30;4.10;;;3.80;;
15633;SDS011;14654;48.898;8.308;2023-04-06T01:25:56;5.10;;;4.70;;
15633;SDS011;14654;48.898;8.308;2023-04-06T01:28:21;5.00;;;4.60;;
15633;SDS011;14654;48.898;8.308;2023-04-06T01:30:46;4.50;;;4.13;;
15633;SDS011;14654;48.898;8.308;2023-04-06T01:33:12;5.00;;;4.23;;
15633;SDS011;14654;48.898;8.308;2023-04-06T01:35:37;4.30;;;3.90;;
15633;SDS011;14654;48.898;8.308;2023-04-06T01:38:03;4.50;;;4.10;;
15633;SDS011;14654;48.898;8.308;2023-04-06T01:40:28;4.60;;;4.20;;
15633;SDS011;14654;48.898;8.308;2023-04-06T01:42:53;4.57;;;4.17;;
15633;SDS011;14654;48.898;8.308;2023-04-06T01:45:19;4.23;;;3.83;;
15633;SDS011;14654;48.898;8.308;2023-04-06T01:47:44;4.40;;;4.10;;
15633;SDS011;14654;48.898;8.308;2023-04-06T01:50:10;4.40;;;4.00;;
15633;SDS011;14654;48.898;8.308;2023-04-06T01:52:35;4.73;;;4.33;;
15633;SDS011;14654;48.898;8.308;2023-04-06T01:55:02;4.03;;;3.73;;
15633;SDS011;14654;48.898;8.308;2023-04-06T01:57:27;4.17;;;3.83;;
15633;SDS011;14654;48.898;8.308;2023-04-06T01:59:53;4.70;;;4.30;;
15633;SDS011;14654;48.898;8.308;2023-04-06T02:02:18;4.90;;;4.50;;
15633;SDS011;14654;48.898;8.308;2023-04-06T02:04:43;5.00;;;4.20;;
15633;SDS011;14654;48.898;8.308;2023-04-06T02:07:09;4.63;;;4.23;;
15633;SDS011;14654;48.898;8.308;2023-04-06T02:09:34;4.93;;;4.53;;
15633;SDS011;14654;48.898;8.308;2023-04-06T02:12:01;4.53;;;4.13;;
15633;SDS011;14654;48.898;8.308;2023-04-06T02:14:27;4.90;;;4.40;;
15633;SDS011;14654;48.898;8.308;2023-04-06T02:16:52;4.93;;;4.47;;
15633;SDS011;14654;48.898;8.308;2023-04-06T02:19:17;5.20;;;4.70;;
15633;SDS011;14654;48.898;8.308;2023-04-06T02:21:43;5.07;;;4.57;;
15633;SDS011;14654;48.898;8.308;2023-04-06T02:24:08;5.63;;;5.13;;
15633;SDS011;14654;48.898;8.308;2023-04-06T02:26:34;5.00;;;4.60;;
15633;SDS011;14654;48.898;8.308;2023-04-06T02:28:59;6.60;;;5.03;;
15633;SDS011;14654;48.898;8.308;2023-04-06T02:31:24;5.40;;;4.90;;
15633;SDS011;14654;48.898;8.308;2023-04-06T02:33:50;5.20;;;4.80;;
15633;SDS011;14654;48.898;8.308;2023-04-06T02:36:15;5.20;;;4.70;;
15633;SDS011;14654;48.898;8.308;2023-04-06T02:38:41;4.90;;;4.50;;
15633;SDS011;14654;48.898;8.308;2023-04-06T02:41:07;5.10;;;4.70;;
15633;SDS011;14654;48.898;8.308;2023-04-06T02:43:32;5.67;;;4.63;;
15633;SDS011;14654;48.898;8.308;2023-04-06T02:45:57;5.67;;;4.97;;
15633;SDS011;14654;48.898;8.308;2023-04-06T02:48:23;4.63;;;4.20;;
15633;SDS011;14654;48.898;8.308;2023-04-06T02:50:48;5.57;;;5.07;;
15633;SDS011;14654;48.898;8.308;2023-04-06T02:53:14;4.97;;;4.57;;
15633;SDS011;14654;48.898;8.308;2023-04-06T02:55:39;5.00;;;4.60;;
15633;SDS011;14654;48.898;8.308;2023-04-06T02:58:05;5.43;;;4.93;;
15633;SDS011;14654;48.898;8.308;2023-04-06T03:00:30;4.80;;;4.40;;
15633;SDS011;14654;48.898;8.308;2023-04-06T03:02:55;5.77;;;4.70;;
15633;SDS011;14654;48.898;8.308;2023-04-06T03:05:21;5.10;;;4.70;;
15633;SDS011;14654;48.898;8.308;2023-04-06T03:07:46;5.50;;;4.93;;
15633;SDS011;14654;48.898;8.308;2023-04-06T03:10:12;6.17;;;4.40;;
15633;SDS011;14654;48.898;8.308;2023-04-06T03:12:37;5.30;;;4.80;;
15633;SDS011;14654;48.898;8.308;2023-04-06T03:15:02;4.37;;;3.97;;
15633;SDS011;14654;48.898;8.308;2023-04-06T03:17:28;4.90;;;4.50;;
15633;SDS011;14654;48.898;8.308;2023-04-06T03:19:53;4.83;;;4.43;;
15633;SDS011;14654;48.898;8.308;2023-04-06T03:22:19;4.80;;;4.40;;
15633;SDS011;14654;48.898;8.308;2023-04-06T03:24:45;4.47;;;4.07;;
15633;SDS011;14654;48.898;8.308;2023-04-06T03:27:10;4.90;;;4.40;;
15633;SDS011;14654;48.898;8.308;2023-04-06T03:29:36;4.27;;;3.93;;
15633;SDS011;14654;48.898;8.308;2023-04-06T03:32:01;5.30;;;4.40;;
15633;SDS011;14654;48.898;8.308;2023-04-06T03:34:26;4.30;;;4.00;;
15633;SDS011;14654;48.898;8.308;2023-04-06T03:36:52;5.17;;;4.67;;
15633;SDS011;14654;48.898;8.308;2023-04-06T03:39:17;5.43;;;4.93;;
15633;SDS011;14654;48.898;8.308;2023-04-06T03:41:42;5.03;;;4.53;;
15633;SDS011;14654;48.898;8.308;2023-04-06T03:44:09;5.23;;;4.83;;
15633;SDS011;14654;48.898;8.308;2023-04-06T03:46:34;11.40;;;4.97;;
15633;SDS011;14654;48.898;8.308;2023-04-06T03:49:00;5.20;;;4.70;;
15633;SDS011;14654;48.898;8.308;2023-04-06T03:51:25;5.53;;;5.03;;
15633;SDS011;14654;48.898;8.308;2023-04-06T03:53:51;5.80;;;5.03;;
15633;SDS011;14654;48.898;8.308;2023-04-06T03:56:16;5.67;;;5.07;;
15633;SDS011;14654;48.898;8.308;2023-04-06T03:58:41;7.10;;;4.97;;
15633;SDS011;14654;48.898;8.308;2023-04-06T04:01:09;5.30;;;4.80;;
15633;SDS011;14654;48.898;8.308;2023-04-06T04:03:34;5.50;;;4.83;;
15633;SDS011;14654;48.898;8.308;2023-04-06T04:06:00;7.07;;;5.33;;
15633;SDS011;14654;48.898;8.308;2023-04-06T04:08:25;7.33;;;5.17;;
15633;SDS011;14654;48.898;8.308;2023-04-06T04:10:51;5.53;;;5.03;;
15633;SDS011;14654;48.898;8.308;2023-04-06T04:13:16;5.83;;;5.20;;
15633;SDS011;14654;48.898;8.308;2023-04-06T04:15:42;5.67;;;5.17;;
15633;SDS011;14654;48.898;8.308;2023-04-06T04:18:07;5.27;;;4.77;;
15633;SDS011;14654;48.898;8.308;2023-04-06T04:20:32;5.70;;;5.10;;
15633;SDS011;14654;48.898;8.308;2023-04-06T04:22:59;5.97;;;4.80;;
15633;SDS011;14654;48.898;8.308;2023-04-06T04:25:24;5.63;;;4.97;;
15633;SDS011;14654;48.898;8.308;2023-04-06T04:27:49;5.20;;;4.70;;
15633;SDS011;14654;48.898;8.308;2023-04-06T04:30:15;5.00;;;4.60;;
15633;SDS011;14654;48.898;8.308;2023-04-06T04:32:41;7.10;;;5.33;;
15633;SDS011;14654;48.898;8.308;2023-04-06T04:35:06;5.43;;;4.93;;
15633;SDS011;14654;48.898;8.308;2023-04-06T04:37:32;5.50;;;4.90;;
15633;SDS011;14654;48.898;8.308;2023-04-06T04:39:59;5.70;;;5.20;;
15633;SDS011;14654;48.898;8.308;2023-04-06T04:42:25;5.53;;;5.03;;
15633;SDS011;14654;48.898;8.308;2023-04-06T04:44:50;5.07;;;4.67;;
15633;SDS011;14654;48.898;8.308;2023-04-06T04:47:15;5.67;;;5.17;;
15633;SDS011;14654;48.898;8.308;2023-04-06T04:49:41;5.70;;;4.93;;
15633;SDS011;14654;48.898;8.308;2023-04-06T04:52:06;5.80;;;5.30;;
15633;SDS011;14654;48.898;8.308;2023-04-06T04:54:31;6.10;;;5.50;;
15633;SDS011;14654;48.898;8.308;2023-04-06T04:56:57;6.17;;;5.57;;
15633;SDS011;14654;48.898;8.308;2023-04-06T04:59:22;5.47;;;4.97;;
15633;SDS011;14654;48.898;8.308;2023-04-06T05:01:48;6.70;;;5.57;;
15633;SDS011;14654;48.898;8.308;2023-04-06T05:04:13;7.27;;;5.57;;
15633;SDS011;14654;48.898;8.308;2023-04-06T05:06:38;6.33;;;5.27;;
15633;SDS011;14654;48.898;8.308;2023-04-06T05:09:04;5.53;;;5.03;;
15633;SDS011;14654;48.898;8.308;2023-04-06T05:11:30;5.70;;;5.10;;
15633;SDS011;14654;48.898;8.308;2023-04-06T05:13:55;6.53;;;5.80;;
15633;SDS011;14654;48.898;8.308;2023-04-06T05:16:21;7.10;;;5.50;;
15633;SDS011;14654;48.898;8.308;2023-04-06T05:18:47;6.10;;;5.50;;
15633;SDS011;14654;48.898;8.308;2023-04-06T05:21:13;6.40;;;5.67;;
15633;SDS011;14654;48.898;8.308;2023-04-06T05:23:38;7.07;;;5.80;;
15633;SDS011;14654;48.898;8.308;2023-04-06T05:26:04;5.40;;;4.90;;
15633;SDS011;14654;48.898;8.308;2023-04-06T05:28:30;5.20;;;4.70;;
15633;SDS011;14654;48.898;8.308;2023-04-06T05:30:55;6.23;;;5.63;;
15633;SDS011;14654;48.898;8.308;2023-04-06T05:33:21;6.67;;;5.50;;
15633;SDS011;14654;48.898;8.308;2023-04-06T05:35:47;7.30;;;5.80;;
15633;SDS011;14654;48.898;8.308;2023-04-06T05:38:12;5.87;;;5.10;;
15633;SDS011;14654;48.898;8.308;2023-04-06T05:40:38;6.00;;;5.50;;
15633;SDS011;14654;48.898;8.308;2023-04-06T05:43:05;6.00;;;5.10;;
15633;SDS011;14654;48.898;8.308;2023-04-06T05:45:31;5.57;;;5.00;;
15633;SDS011;14654;48.898;8.308;2023-04-06T05:47:56;5.17;;;4.70;;
15633;SDS011;14654;48.898;8.308;2023-04-06T05:50:22;5.87;;;4.90;;
15633;SDS011;14654;48.898;8.308;2023-04-06T05:52:47;5.20;;;4.70;;
15633;SDS011;14654;48.898;8.308;2023-04-06T05:55:13;5.10;;;4.50;;
15633;SDS011;14654;48.898;8.308;2023-04-06T05:57:38;5.43;;;4.60;;
15633;SDS011;14654;48.898;8.308;2023-04-06T06:00:04;5.03;;;4.60;;
15633;SDS011;14654;48.898;8.308;2023-04-06T06:02:31;7.37;;;4.53;;
15633;SDS011;14654;48.898;8.308;2023-04-06T06:04:57;5.70;;;4.83;;
15633;SDS011;14654;48.898;8.308;2023-04-06T06:07:22;4.47;;;4.07;;
15633;SDS011;14654;48.898;8.308;2023-04-06T06:09:48;6.57;;;5.00;;
15633;SDS011;14654;48.898;8.308;2023-04-06T06:12:13;5.30;;;4.67;;
15633;SDS011;14654;48.898;8.308;2023-04-06T06:14:39;4.87;;;4.40;;
15633;SDS011;14654;48.898;8.308;2023-04-06T06:17:04;5.33;;;4.43;;
15633;SDS011;14654;48.898;8.308;2023-04-06T06:19:30;5.40;;;4.37;;
15633;SDS011;14654;48.898;8.308;2023-04-06T06:21:55;4.63;;;4.17;;
15633;SDS011;14654;48.898;8.308;2023-04-06T06:24:20;6.03;;;4.40;;
15633;SDS011;14654;48.898;8.308;2023-04-06T06:26:46;7.13;;;4.30;;
15633;SDS011;14654;48.898;8.308;2023-04-06T06:29:13;4.90;;;4.50;;
15633;SDS011;14654;48.898;8.308;2023-04-06T06:31:39;5.47;;;4.30;;
15633;SDS011;14654;48.898;8.308;2023-04-06T06:34:05;4.70;;;4.30;;
15633;SDS011;14654;48.898;8.308;2023-04-06T06:36:31;4.87;;;4.40;;
15633;SDS011;14654;48.898;8.308;2023-04-06T06:38:56;4.97;;;4.57;;
15633;SDS011;14654;48.898;8.308;2023-04-06T06:41:23;4.93;;;4.40;;
15633;SDS011;14654;48.898;8.308;2023-04-06T06:43:51;5.97;;;4.83;;
15633;SDS011;14654;48.898;8.308;2023-04-06T06:46:16;4.80;;;4.30;;
15633;SDS011;14654;48.898;8.308;2023-04-06T06:48:42;5.07;;;4.57;;
15633;SDS011;14654;48.898;8.308;2023-04-06T06:51:07;5.80;;;5.30;;
15633;SDS011;14654;48.898;8.308;2023-04-06T06:53:34;5.30;;;4.80;;
15633;SDS011;14654;48.898;8.308;2023-04-06T06:56:00;5.23;;;4.73;;
15633;SDS011;14654;48.898;8.308;2023-04-06T06:58:28;5.20;;;4.70;;
15633;SDS011;14654;48.898;8.308;2023-04-06T07:00:56;5.47;;;4.97;;
15633;SDS011;14654;48.898;8.308;2023-04-06T07:03:22;5.80;;;5.20;;
15633;SDS011;14654;48.898;8.308;2023-04-06T07:05:48;6.03;;;4.97;;
15633;SDS011;14654;48.898;8.308;2023-04-06T07:08:20;5.00;;;4.60;;
15633;SDS011;14654;48.898;8.308;2023-04-06T07:10:47;5.03;;;4.63;;
15633;SDS011;14654;48.898;8.308;2023-04-06T07:13:13;5.43;;;4.93;;
15633;SDS011;14654;48.898;8.308;2023-04-06T07:15:43;5.43;;;4.93;;
15633;SDS011;14654;48.898;8.308;2023-04-06T07:18:08;5.77;;;5.23;;
15633;SDS011;14654;48.898;8.308;2023-04-06T07:20:34;5.53;;;5.03;;
15633;SDS011;14654;48.898;8.308;2023-04-06T07:22:59;5.60;;;5.10;;
15633;SDS011;14654;48.898;8.308;2023-04-06T07:25:24;6.07;;;4.77;;
15633;SDS011;14654;48.898;8.308;2023-04-06T07:27:50;5.30;;;4.90;;
15633;SDS011;14654;48.898;8.308;2023-04-06T07:30:15;4.77;;;4.37;;
15633;SDS011;14654;48.898;8.308;2023-04-06T07:32:40;6.03;;;5.43;;
15633;SDS011;14654;48.898;8.308;2023-04-06T07:35:06;6.07;;;5.47;;
15633;SDS011;14654;48.898;8.308;2023-04-06T07:37:31;5.80;;;5.20;;
15633;SDS011;14654;48.898;8.308;2023-04-06T07:39:57;5.53;;;5.03;;
15633;SDS011;14654;48.898;8.308;2023-04-06T07:42:22;5.73;;;5.13;;
15633;SDS011;14654;48.898;8.308;2023-04-06T07:44:48;5.37;;;4.87;;
15633;SDS011;14654;48.898;8.308;2023-04-06T07:47:13;5.93;;;5.30;;
15633;SDS011;14654;48.898;8.308;2023-04-06T07:49:38;5.60;;;5.20;;
15633;SDS011;14654;48.898;8.308;2023-04-06T07:52:04;5.60;;;5.10;;
15633;SDS011;14654;48.898;8.308;2023-04-06T07:54:29;5.93;;;5.33;;
15633;SDS011;14654;48.898;8.308;2023-04-06T07:56:55;5.53;;;5.03;;
15633;SDS011;14654;48.898;8.308;2023-04-06T07:59:20;5.90;;;5.33;;
15633;SDS011;14654;48.898;8.308;2023-04-06T08:01:46;5.17;;;4.67;;
15633;SDS011;14654;48.898;8.308;2023-04-06T08:04:11;5.77;;;5.00;;
15633;SDS011;14654;48.898;8.308;2023-04-06T08:06:36;5.07;;;4.67;;
15633;SDS011;14654;48.898;8.308;2023-04-06T08:09:02;4.90;;;4.50;;
15633;SDS011;14654;48.898;8.308;2023-04-06T08:11:29;5.47;;;4.93;;
15633;SDS011;14654;48.898;8.308;2023-04-06T08:13:54;4.93;;;4.50;;
15633;SDS011;14654;48.898;8.308;2023-04-06T08:16:21;4.57;;;4.17;;
15633;SDS011;14654;48.898;8.308;2023-04-06T08:18:47;4.70;;;4.30;;
15633;SDS011;14654;48.898;8.308;2023-04-06T08:21:12;4.97;;;4.47;;
15633;SDS011;14654;48.898;8.308;2023-04-06T08:23:38;5.03;;;4.50;;
15633;SDS011;14654;48.898;8.308;2023-04-06T08:26:04;4.57;;;4.17;;
15633;SDS011;14654;48.898;8.308;2023-04-06T08:28:29;5.00;;;4.20;;
15633;SDS011;14654;48.898;8.308;2023-04-06T08:30:55;4.00;;;3.70;;
15633;SDS011;14654;48.898;8.308;2023-04-06T08:33:20;4.50;;;4.10;;
15633;SDS011;14654;48.898;8.308;2023-04-06T08:35:45;4.83;;;4.43;;
15633;SDS011;14654;48.898;8.308;2023-04-06T08:38:11;4.53;;;4.20;;
15633;SDS011;14654;48.898;8.308;2023-04-06T08:40:37;5.70;;;5.20;;
15633;SDS011;14654;48.898;8.308;2023-04-06T08:43:03;5.30;;;4.80;;
15633;SDS011;14654;48.898;8.308;2023-04-06T08:45:33;5.10;;;4.60;;
15633;SDS011;14654;48.898;8.308;2023-04-06T08:47:58;5.70;;;5.20;;
15633;SDS011;14654;48.898;8.308;2023-04-06T08:50:26;6.57;;;5.80;;
15633;SDS011;14654;48.898;8.308;2023-04-06T08:52:54;6.83;;;6.13;;
15633;SDS011;14654;48.898;8.308;2023-04-06T08:55:20;6.33;;;5.83;;
15633;SDS011;14654;48.898;8.308;2023-04-06T08:57:47;7.00;;;6.00;;
15633;SDS011;14654;48.898;8.308;2023-04-06T09:00:13;7.40;;;5.90;;
15633;SDS011;14654;48.898;8.308;2023-04-06T09:02:39;5.90;;;5.30;;
15633;SDS011;14654;48.898;8.308;2023-04-06T09:05:08;6.70;;;5.97;;
15633;SDS011;14654;48.898;8.308;2023-04-06T09:07:35;8.27;;;6.20;;
15633;SDS011;14654;48.898;8.308;2023-04-06T09:10:01;6.00;;;5.50;;
15633;SDS011;14654;48.898;8.308;2023-04-06T09:12:27;6.00;;;5.50;;
15633;SDS011;14654;48.898;8.308;2023-04-06T09:14:54;5.87;;;5.37;;
15633;SDS011;14654;48.898;8.308;2023-04-06T09:17:21;5.30;;;4.90;;
15633;SDS011;14654;48.898;8.308;2023-04-06T09:19:51;6.17;;;5.67;;
15633;SDS011;14654;48.898;8.308;2023-04-06T09:22:17;6.27;;;5.67;;
15633;SDS011;14654;48.898;8.308;2023-04-06T09:24:43;6.27;;;5.70;;
15633;SDS011;14654;48.898;8.308;2023-04-06T09:27:13;5.83;;;5.20;;
15633;SDS011;14654;48.898;8.308;2023-04-06T09:29:42;6.23;;;5.60;;
15633;SDS011;14654;48.898;8.308;2023-04-06T09:32:09;6.60;;;6.00;;
15633;SDS011;14654;48.898;8.308;2023-04-06T09:34:38;6.50;;;5.50;;
15633;SDS011;14654;48.898;8.308;2023-04-06T09:39:43;5.83;;;5.20;;
15633;SDS011;14654;48.898;8.308;2023-04-06T09:42:09;7.03;;;6.33;;
15633;SDS011;14654;48.898;8.308;2023-04-06T09:44:36;6.50;;;5.90;;
15633;SDS011;14654;48.898;8.308;2023-04-06T09:47:02;6.43;;;5.83;;
15633;SDS011;14654;48.898;8.308;2023-04-06T09:49:31;6.67;;;6.07;;
15633;SDS011;14654;48.898;8.308;2023-04-06T09:52:00;5.60;;;5.17;;
15633;SDS011;14654;48.898;8.308;2023-04-06T09:54:28;7.07;;;5.67;;
15633;SDS011;14654;48.898;8.308;2023-04-06T09:59:39;6.67;;;6.07;;
15633;SDS011;14654;48.898;8.308;2023-04-06T10:02:35;6.83;;;6.23;;
15633;SDS011;14654;48.898;8.308;2023-04-06T10:05:27;6.30;;;5.67;;
15633;SDS011;14654;48.898;8.308;2023-04-06T10:08:11;7.00;;;5.43;;
15633;SDS011;14654;48.898;8.308;2023-04-06T10:10:38;6.30;;;5.73;;
15633;SDS011;14654;48.898;8.308;2023-04-06T10:13:04;7.50;;;6.47;;
15633;SDS011;14654;48.898;8.308;2023-04-06T10:15:30;6.57;;;5.97;;
15633;SDS011;14654;48.898;8.308;2023-04-06T10:17:59;5.43;;;4.97;;
15633;SDS011;14654;48.898;8.308;2023-04-06T10:23:32;7.07;;;6.37;;
15633;SDS011;14654;48.898;8.308;2023-04-06T10:26:00;7.73;;;7.03;;
15633;SDS011;14654;48.898;8.308;2023-04-06T10:28:30;6.80;;;6.10;;
15633;SDS011;14654;48.898;8.308;2023-04-06T10:31:04;7.03;;;6.40;;
15633;SDS011;14654;48.898;8.308;2023-04-06T10:33:31;6.67;;;6.07;;
15633;SDS011;14654;48.898;8.308;2023-04-06T10:35:56;6.10;;;5.60;;
15633;SDS011;14654;48.898;8.308;2023-04-06T10:38:56;6.10;;;5.60;;
15633;SDS011;14654;48.898;8.308;2023-04-06T10:41:19;5.53;;;5.03;;
15633;SDS011;14654;48.898;8.308;2023-04-06T10:43:45;5.47;;;4.97;;
15633;SDS011;14654;48.898;8.308;2023-04-06T10:46:24;9.10;;;6.50;;
15633;SDS011;14654;48.898;8.308;2023-04-06T10:48:51;6.77;;;5.30;;
15633;SDS011;14654;48.898;8.308;2023-04-06T10:51:17;7.97;;;6.77;;
15633;SDS011;14654;48.898;8.308;2023-04-06T10:53:44;6.43;;;5.83;;
15633;SDS011;14654;48.898;8.308;2023-04-06T10:56:13;9.07;;;5.90;;
15633;SDS011;14654;48.898;8.308;2023-04-06T10:58:46;8.47;;;6.97;;
15633;SDS011;14654;48.898;8.308;2023-04-06T11:01:12;9.00;;;6.43;;
15633;SDS011;14654;48.898;8.308;2023-04-06T11:08:46;6.63;;;6.03;;
15633;SDS011;14654;48.898;8.308;2023-04-06T11:11:12;5.40;;;4.97;;
15633;SDS011;14654;48.898;8.308;2023-04-06T11:16:16;5.97;;;5.47;;
15633;SDS011;14654;48.898;8.308;2023-04-06T11:18:49;6.33;;;5.73;;
15633;SDS011;14654;48.898;8.308;2023-04-06T11:21:32;6.23;;;5.63;;
15633;SDS011;14654;48.898;8.308;2023-04-06T11:26:30;6.23;;;5.73;;
15633;SDS011;14654;48.898;8.308;2023-04-06T11:28:55;6.23;;;5.73;;
15633;SDS011;14654;48.898;8.308;2023-04-06T11:31:24;6.80;;;5.93;;
15633;SDS011;14654;48.898;8.308;2023-04-06T11:33:55;5.43;;;5.03;;
15633;SDS011;14654;48.898;8.308;2023-04-06T11:36:21;6.47;;;5.87;;
15633;SDS011;14654;48.898;8.308;2023-04-06T11:38:46;5.83;;;5.20;;
15633;SDS011;14654;48.898;8.308;2023-04-06T11:41:12;6.97;;;6.37;;
15633;SDS011;14654;48.898;8.308;2023-04-06T11:43:37;7.30;;;6.60;;
15633;SDS011;14654;48.898;8.308;2023-04-06T11:46:03;7.33;;;6.67;;
15633;SDS011;14654;48.898;8.308;2023-04-06T11:48:29;7.10;;;6.50;;
15633;SDS011;14654;48.898;8.308;2023-04-06T11:50:59;7.90;;;7.20;;
15633;SDS011;14654;48.898;8.308;2023-04-06T11:53:26;7.93;;;7.23;;
15633;SDS011;14654;48.898;8.308;2023-04-06T11:55:53;6.90;;;6.30;;
15633;SDS011;14654;48.898;8.308;2023-04-06T11:58:18;6.70;;;6.00;;
15633;SDS011;14654;48.898;8.308;2023-04-06T12:00:44;6.67;;;6.00;;
15633;SDS011;14654;48.898;8.308;2023-04-06T12:03:13;5.80;;;5.20;;
15633;SDS011;14654;48.898;8.308;2023-04-06T12:05:39;8.40;;;7.50;;
15633;SDS011;14654;48.898;8.308;2023-04-06T12:08:04;7.90;;;7.17;;
15633;SDS011;14654;48.898;8.308;2023-04-06T12:10:30;6.80;;;6.10;;
15633;SDS011;14654;48.898;8.308;2023-04-06T12:12:55;6.90;;;6.20;;
15633;SDS011;14654;48.898;8.308;2023-04-06T12:15:21;7.10;;;6.50;;
15633;SDS011;14654;48.898;8.308;2023-04-06T12:17:46;7.30;;;6.60;;
15633;SDS011;14654;48.898;8.308;2023-04-06T12:20:12;5.90;;;5.33;;
15633;SDS011;14654;48.898;8.308;2023-04-06T12:22:38;6.30;;;5.70;;
15633;SDS011;14654;48.898;8.308;2023-04-06T12:25:03;6.37;;;5.80;;
15633;SDS011;14654;48.898;8.308;2023-04-06T12:27:29;6.77;;;6.00;;
15633;SDS011;14654;48.898;8.308;2023-04-06T12:29:55;6.43;;;5.80;;
15633;SDS011;14654;48.898;8.308;2023-04-06T12:32:20;5.93;;;5.43;;
15633;SDS011;14654;48.898;8.308;2023-04-06T12:34:46;5.47;;;4.97;;
15633;SDS011;14654;48.898;8.308;2023-04-06T12:37:12;5.70;;;5.20;;
15633;SDS011;14654;48.898;8.308;2023-04-06T12:39:37;5.10;;;4.70;;
15633;SDS011;14654;48.898;8.308;2023-04-06T12:42:02;5.03;;;4.57;;
15633;SDS011;14654;48.898;8.308;2023-04-06T12:44:28;5.97;;;5.17;;
15633;SDS011;14654;48.898;8.308;2023-04-06T12:46:54;5.47;;;4.83;;
15633;SDS011;14654;48.898;8.308;2023-04-06T12:49:20;4.73;;;4.23;;
15633;SDS011;14654;48.898;8.308;2023-04-06T12:51:46;4.87;;;4.37;;
15633;SDS011;14654;48.898;8.308;2023-04-06T12:54:12;4.40;;;4.00;;
15633;SDS011;14654;48.898;8.308;2023-04-06T12:56:37;4.50;;;4.10;;
15633;SDS011;14654;48.898;8.308;2023-04-06T12:59:03;5.20;;;4.50;;
15633;SDS011;14654;48.898;8.308;2023-04-06T13:01:28;3.83;;;3.40;;
15633;SDS011;14654;48.898;8.308;2023-04-06T13:03:54;4.37;;;3.90;;
15633;SDS011;14654;48.898;8.308;2023-04-06T13:06:19;5.07;;;4.60;;
15633;SDS011;14654;48.898;8.308;2023-04-06T13:08:44;4.53;;;4.13;;
15633;SDS011;14654;48.898;8.308;2023-04-06T13:11:12;4.20;;;3.90;;
15633;SDS011;14654;48.898;8.308;2023-04-06T13:13:37;4.67;;;4.27;;
15633;SDS011;14654;48.898;8.308;2023-04-06T13:16:12;5.10;;;4.70;;
15633;SDS011;14654;48.898;8.308;2023-04-06T13:18:37;5.17;;;4.77;;
15633;SDS011;14654;48.898;8.308;2023-04-06T13:21:04;4.70;;;4.37;;
15633;SDS011;14654;48.898;8.308;2023-04-06T13:23:30;4.87;;;4.40;;
15633;SDS011;14654;48.898;8.308;2023-04-06T13:25:56;5.33;;;4.87;;
15633;SDS011;14654;48.898;8.308;2023-04-06T13:28:23;5.33;;;4.83;;
15633;SDS011;14654;48.898;8.308;2023-04-06T13:30:49;5.00;;;4.50;;
15633;SDS011;14654;48.898;8.308;2023-04-06T13:33:14;5.63;;;5.13;;
15633;SDS011;14654;48.898;8.308;2023-04-06T13:35:43;4.97;;;4.57;;
15633;SDS011;14654;48.898;8.308;2023-04-06T13:38:10;4.20;;;3.90;;
15633;SDS011;14654;48.898;8.308;2023-04-06T13:40:38;4.73;;;4.33;;
15633;SDS011;14654;48.898;8.308;2023-04-06T13:43:04;5.13;;;4.10;;
15633;SDS011;14654;48.898;8.308;2023-04-06T13:45:30;4.67;;;4.27;;
15633;SDS011;14654;48.898;8.308;2023-04-06T13:47:55;4.50;;;4.10;;
15633;SDS011;14654;48.898;8.308;2023-04-06T13:50:21;4.20;;;3.90;;
15633;SDS011;14654;48.898;8.308;2023-04-06T13:52:46;4.10;;;3.73;;
15633;SDS011;14654;48.898;8.308;2023-04-06T13:55:11;4.13;;;3.73;;
15633;SDS011;14654;48.898;8.308;2023-04-06T13:57:37;3.50;;;3.20;;
15633;SDS011;14654;48.898;8.308;2023-04-06T14:00:02;3.30;;;3.00;;
15633;SDS011;14654;48.898;8.308;2023-04-06T14:02:29;5.57;;;3.37;;
15633;SDS011;14654;48.898;8.308;2023-04-06T14:04:54;3.23;;;2.93;;
15633;SDS011;14654;48.898;8.308;2023-04-06T14:07:20;5.37;;;4.17;;
15633;SDS011;14654;48.898;8.308;2023-04-06T14:09:46;6.47;;;5.17;;
15633;SDS011;14654;48.898;8.308;2023-04-06T14:12:11;5.97;;;5.23;;
15633;SDS011;14654;48.898;8.308;2023-04-06T14:14:36;6.63;;;6.03;;
15633;SDS011;14654;48.898;8.308;2023-04-06T14:17:02;5.88;;;5.28;;
15633;SDS011;14654;48.898;8.308;2023-04-06T14:19:27;6.50;;;4.60;;
15633;SDS011;14654;48.898;8.308;2023-04-06T14:21:52;3.93;;;3.63;;
15633;SDS011;14654;48.898;8.308;2023-04-06T14:24:20;4.73;;;4.20;;
15633;SDS011;14654;48.898;8.308;2023-04-06T14:26:45;5.10;;;4.60;;
15633;SDS011;14654;48.898;8.308;2023-04-06T14:29:11;4.90;;;4.43;;
15633;SDS011;14654;48.898;8.308;2023-04-06T14:31:36;5.10;;;4.60;;
15633;SDS011;14654;48.898;8.308;2023-04-06T14:34:02;4.90;;;4.30;;
15633;SDS011;14654;48.898;8.308;2023-04-06T14:36:28;5.30;;;4.10;;
15633;SDS011;14654;48.898;8.308;2023-04-06T14:39:01;4.90;;;4.10;;
15633;SDS011;14654;48.898;8.308;2023-04-06T14:41:27;4.17;;;3.77;;
15633;SDS011;14654;48.898;8.308;2023-04-06T14:43:52;4.00;;;3.70;;
15633;SDS011;14654;48.898;8.308;2023-04-06T14:46:17;3.80;;;3.40;;
15633;SDS011;14654;48.898;8.308;2023-04-06T14:48:43;4.33;;;3.93;;
15633;SDS011;14654;48.898;8.308;2023-04-06T14:51:10;5.43;;;4.70;;
15633;SDS011;14654;48.898;8.308;2023-04-06T14:53:36;4.70;;;4.27;;
15633;SDS011;14654;48.898;8.308;2023-04-06T14:56:02;4.70;;;4.10;;
15633;SDS011;14654;48.898;8.308;2023-04-06T14:58:27;5.03;;;4.53;;
15633;SDS011;14654;48.898;8.308;2023-04-06T15:00:56;4.43;;;4.03;;